sensor_id;sensor_type;location;lat;lon;timestamp;pressure;altitude;pressure_sealevel;temperature;humidity
10127;BME280;13080;42.608;23.362;2022-07-22T00:00:11;92870.72;;;20.37;51.04
10127;BME280;13080;42.608;23.362;2022-07-22T00:02:38;92873.03;;;20.35;50.64
10127;BME280;13080;42.608;23.362;2022-07-22T00:05:07;92873.41;;;20.44;50.55
10127;BME280;13080;42.608;23.362;2022-07-22T00:07:35;92866.44;;;20.50;50.35
10127;BME280;13080;42.608;23.362;2022-07-22T00:10:03;92871.47;;;20.41;50.52
10127;BME280;13080;42.608;23.362;2022-07-22T00:12:31;92875.38;;;20.33;50.65
10127;BME280;13080;42.608;23.362;2022-07-22T00:14:58;92871.47;;;20.48;51.20
10127;BME280;13080;42.608;23.362;2022-07-22T00:17:25;92871.50;;;20.34;50.78
10127;BME280;13080;42.608;23.362;2022-07-22T00:19:52;92873.06;;;20.31;50.83
10127;BME280;13080;42.608;23.362;2022-07-22T00:22:19;92870.34;;;20.24;51.26
10127;BME280;13080;42.608;23.362;2022-07-22T00:24:45;92874.63;;;20.11;51.75
10127;BME280;13080;42.608;23.362;2022-07-22T00:27:12;92877.34;;;20.00;52.86
10127;BME280;13080;42.608;23.362;2022-07-22T00:29:40;92876.94;;;19.84;52.71
10127;BME280;13080;42.608;23.362;2022-07-22T00:32:07;92876.94;;;19.77;53.11
10127;BME280;13080;42.608;23.362;2022-07-22T00:34:34;92877.72;;;19.73;53.23
10127;BME280;13080;42.608;23.362;2022-07-22T00:37:01;92880.00;;;19.57;53.78
10127;BME280;13080;42.608;23.362;2022-07-22T00:39:27;92882.72;;;19.46;54.05
10127;BME280;13080;42.608;23.362;2022-07-22T00:41:54;92879.19;;;19.39;54.45
10127;BME280;13080;42.608;23.362;2022-07-22T00:44:21;92876.13;;;19.47;53.88
10127;BME280;13080;42.608;23.362;2022-07-22T00:46:49;92874.56;;;19.43;55.49
10127;BME280;13080;42.608;23.362;2022-07-22T00:49:16;92879.97;;;19.28;55.33
10127;BME280;13080;42.608;23.362;2022-07-22T00:51:43;92876.06;;;19.15;55.67
10127;BME280;13080;42.608;23.362;2022-07-22T00:54:10;92878.34;;;19.09;56.75
10127;BME280;13080;42.608;23.362;2022-07-22T00:56:38;92873.69;;;18.96;57.18
10127;BME280;13080;42.608;23.362;2022-07-22T00:59:07;92880.59;;;18.86;57.53
10127;BME280;13080;42.608;23.362;2022-07-22T01:01:34;92875.88;;;18.72;58.23
10127;BME280;13080;42.608;23.362;2022-07-22T01:04:04;92880.84;;;18.63;58.45
10127;BME280;13080;42.608;23.362;2022-07-22T01:06:32;92874.22;;;18.49;58.48
10127;BME280;13080;42.608;23.362;2022-07-22T01:08:58;92879.59;;;18.42;58.61
10127;BME280;13080;42.608;23.362;2022-07-22T01:11:26;92881.47;;;18.35;58.65
10127;BME280;13080;42.608;23.362;2022-07-22T01:13:54;92881.44;;;18.27;59.03
10127;BME280;13080;42.608;23.362;2022-07-22T01:16:21;92874.47;;;18.23;59.21
10127;BME280;13080;42.608;23.362;2022-07-22T01:18:48;92867.09;;;18.16;59.31
10127;BME280;13080;42.608;23.362;2022-07-22T01:21:17;92879.44;;;18.17;59.05
10127;BME280;13080;42.608;23.362;2022-07-22T01:23:44;92879.03;;;18.12;58.37
10127;BME280;13080;42.608;23.362;2022-07-22T01:26:11;92875.59;;;18.18;58.63
10127;BME280;13080;42.608;23.362;2022-07-22T01:28:39;92877.88;;;18.13;58.39
10127;BME280;13080;42.608;23.362;2022-07-22T01:31:06;92880.94;;;18.11;57.91
10127;BME280;13080;42.608;23.362;2022-07-22T01:33:33;92881.66;;;18.04;58.30
10127;BME280;13080;42.608;23.362;2022-07-22T01:36:01;92878.19;;;18.04;58.62
10127;BME280;13080;42.608;23.362;2022-07-22T01:38:29;92875.13;;;18.09;58.89
10127;BME280;13080;42.608;23.362;2022-07-22T01:40:56;92877.81;;;18.05;58.44
10127;BME280;13080;42.608;23.362;2022-07-22T01:43:23;92877.81;;;18.05;57.94
10127;BME280;13080;42.608;23.362;2022-07-22T01:45:51;92870.84;;;18.01;58.60
10127;BME280;13080;42.608;23.362;2022-07-22T01:48:19;92866.91;;;17.91;59.34
10127;BME280;13080;42.608;23.362;2022-07-22T01:50:46;92866.13;;;17.91;58.91
10127;BME280;13080;42.608;23.362;2022-07-22T01:53:13;92866.50;;;17.85;59.05
10127;BME280;13080;42.608;23.362;2022-07-22T01:55:42;92877.22;;;17.78;59.24
10127;BME280;13080;42.608;23.362;2022-07-22T01:58:09;92868.81;;;17.87;59.04
10127;BME280;13080;42.608;23.362;2022-07-22T02:00:36;92877.72;;;17.91;58.38
10127;BME280;13080;42.608;23.362;2022-07-22T02:03:03;92881.53;;;17.86;59.04
10127;BME280;13080;42.608;23.362;2022-07-22T02:05:31;92880.41;;;17.88;59.97
10127;BME280;13080;42.608;23.362;2022-07-22T02:08:00;92884.50;;;17.78;60.25
10127;BME280;13080;42.608;23.362;2022-07-22T02:10:27;92884.47;;;17.71;59.97
10127;BME280;13080;42.608;23.362;2022-07-22T02:12:56;92872.06;;;17.62;59.93
10127;BME280;13080;42.608;23.362;2022-07-22T02:15:23;92873.97;;;17.62;60.53
10127;BME280;13080;42.608;23.362;2022-07-22T02:17:50;92878.91;;;17.53;61.01
10127;BME280;13080;42.608;23.362;2022-07-22T02:20:17;92880.84;;;17.52;62.45
10127;BME280;13080;42.608;23.362;2022-07-22T02:22:44;92884.66;;;17.48;62.24
10127;BME280;13080;42.608;23.362;2022-07-22T02:25:11;92887.28;;;17.40;62.23
10127;BME280;13080;42.608;23.362;2022-07-22T02:27:38;92890.00;;;17.44;63.09
10127;BME280;13080;42.608;23.362;2022-07-22T02:30:07;92890.00;;;17.40;63.12
10127;BME280;13080;42.608;23.362;2022-07-22T02:32:35;92887.59;;;17.32;63.58
10127;BME280;13080;42.608;23.362;2022-07-22T02:35:03;92889.81;;;17.22;63.51
10127;BME280;13080;42.608;23.362;2022-07-22T02:37:30;92886.28;;;17.18;63.67
10127;BME280;13080;42.608;23.362;2022-07-22T02:39:57;92893.94;;;17.13;64.56
10127;BME280;13080;42.608;23.362;2022-07-22T02:42:23;92887.41;;;17.14;64.54
10127;BME280;13080;42.608;23.362;2022-07-22T02:44:50;92893.91;;;17.09;64.79
10127;BME280;13080;42.608;23.362;2022-07-22T02:47:18;92893.09;;;17.05;64.73
10127;BME280;13080;42.608;23.362;2022-07-22T02:49:45;92883.84;;;17.06;65.46
10127;BME280;13080;42.608;23.362;2022-07-22T02:52:12;92883.41;;;17.00;65.38
10127;BME280;13080;42.608;23.362;2022-07-22T02:54:39;92886.94;;;17.04;64.71
10127;BME280;13080;42.608;23.362;2022-07-22T02:57:05;92885.75;;;17.02;64.67
10127;BME280;13080;42.608;23.362;2022-07-22T02:59:32;92885.00;;;17.05;65.43
10127;BME280;13080;42.608;23.362;2022-07-22T03:01:59;92882.66;;;17.03;65.02
10127;BME280;13080;42.608;23.362;2022-07-22T03:04:27;92887.34;;;17.07;64.93
10127;BME280;13080;42.608;23.362;2022-07-22T03:06:54;92889.28;;;17.10;65.04
10127;BME280;13080;42.608;23.362;2022-07-22T03:09:21;92878.84;;;17.08;65.12
10127;BME280;13080;42.608;23.362;2022-07-22T03:11:48;92873.06;;;17.06;65.20
10127;BME280;13080;42.608;23.362;2022-07-22T03:14:15;92882.66;;;17.03;65.10
10127;BME280;13080;42.608;23.362;2022-07-22T03:16:43;92876.16;;;17.08;64.95
10127;BME280;13080;42.608;23.362;2022-07-22T03:19:10;92880.78;;;17.08;64.83
10127;BME280;13080;42.608;23.362;2022-07-22T03:21:38;92883.84;;;17.06;65.75
10127;BME280;13080;42.608;23.362;2022-07-22T03:24:05;92887.69;;;17.05;65.80
10127;BME280;13080;42.608;23.362;2022-07-22T03:26:32;92894.59;;;17.02;66.86
10127;BME280;13080;42.608;23.362;2022-07-22T03:28:59;92891.50;;;17.00;65.95
10127;BME280;13080;42.608;23.362;2022-07-22T03:31:26;92887.69;;;17.05;66.13
10127;BME280;13080;42.608;23.362;2022-07-22T03:33:53;92886.63;;;17.13;65.96
10127;BME280;13080;42.608;23.362;2022-07-22T03:36:20;92884.03;;;17.24;66.46
10127;BME280;13080;42.608;23.362;2022-07-22T03:38:48;92885.59;;;17.25;66.03
10127;BME280;13080;42.608;23.362;2022-07-22T03:41:15;92888.00;;;17.34;66.18
10127;BME280;13080;42.608;23.362;2022-07-22T03:43:42;92885.38;;;17.41;64.93
10127;BME280;13080;42.608;23.362;2022-07-22T03:46:08;92885.47;;;17.52;64.87
10127;BME280;13080;42.608;23.362;2022-07-22T03:48:35;92896.72;;;17.61;64.50
10127;BME280;13080;42.608;23.362;2022-07-22T03:51:02;92901.81;;;17.73;64.19
10127;BME280;13080;42.608;23.362;2022-07-22T03:53:29;92899.28;;;17.88;63.85
10127;BME280;13080;42.608;23.362;2022-07-22T03:55:59;92899.38;;;17.98;63.62
10127;BME280;13080;42.608;23.362;2022-07-22T03:58:26;92904.06;;;18.08;63.62
10127;BME280;13080;42.608;23.362;2022-07-22T04:00:53;92908.03;;;18.22;64.63
10127;BME280;13080;42.608;23.362;2022-07-22T04:03:20;92909.31;;;18.39;64.76
10127;BME280;13080;42.608;23.362;2022-07-22T04:05:47;92911.28;;;18.49;64.44
10127;BME280;13080;42.608;23.362;2022-07-22T04:08:16;92909.38;;;18.53;64.75
10127;BME280;13080;42.608;23.362;2022-07-22T04:10:43;92904.78;;;18.61;63.83
10127;BME280;13080;42.608;23.362;2022-07-22T04:13:11;92909.44;;;18.64;63.66
10127;BME280;13080;42.608;23.362;2022-07-22T04:15:38;92916.81;;;18.74;63.16
10127;BME280;13080;42.608;23.362;2022-07-22T04:18:05;92914.59;;;18.87;62.32
10127;BME280;13080;42.608;23.362;2022-07-22T04:20:32;92912.34;;;19.00;61.34
10127;BME280;13080;42.608;23.362;2022-07-22T04:22:59;92912.38;;;19.14;61.22
10127;BME280;13080;42.608;23.362;2022-07-22T04:25:26;92912.78;;;19.23;61.05
10127;BME280;13080;42.608;23.362;2022-07-22T04:27:52;92911.69;;;19.35;61.52
10127;BME280;13080;42.608;23.362;2022-07-22T04:30:21;92910.16;;;19.45;61.11
10127;BME280;13080;42.608;23.362;2022-07-22T04:32:48;92910.91;;;19.52;61.92
10127;BME280;13080;42.608;23.362;2022-07-22T04:35:15;92922.16;;;19.65;60.04
10127;BME280;13080;42.608;23.362;2022-07-22T04:37:42;92912.13;;;19.62;61.35
10127;BME280;13080;42.608;23.362;2022-07-22T04:40:10;92916.38;;;19.67;61.75
10127;BME280;13080;42.608;23.362;2022-07-22T04:42:37;92922.59;;;19.78;60.72
10127;BME280;13080;42.608;23.362;2022-07-22T04:45:04;92921.84;;;19.78;61.71
10127;BME280;13080;42.608;23.362;2022-07-22T04:47:33;92927.66;;;19.94;61.40
10127;BME280;13080;42.608;23.362;2022-07-22T04:50:00;92928.41;;;19.87;62.99
10127;BME280;13080;42.608;23.362;2022-07-22T04:52:27;92933.06;;;19.94;63.13
10127;BME280;13080;42.608;23.362;2022-07-22T04:54:53;92929.97;;;19.96;62.64
10127;BME280;13080;42.608;23.362;2022-07-22T04:57:21;92932.69;;;20.10;62.12
10127;BME280;13080;42.608;23.362;2022-07-22T04:59:48;92942.75;;;20.02;62.88
10127;BME280;13080;42.608;23.362;2022-07-22T05:02:14;92937.69;;;20.04;62.31
10127;BME280;13080;42.608;23.362;2022-07-22T05:04:43;92945.81;;;20.04;63.62
10127;BME280;13080;42.608;23.362;2022-07-22T05:07:10;92943.50;;;20.17;62.60
10127;BME280;13080;42.608;23.362;2022-07-22T05:09:36;92938.50;;;20.12;63.52
10127;BME280;13080;42.608;23.362;2022-07-22T05:12:04;92944.66;;;20.20;63.93
10127;BME280;13080;42.608;23.362;2022-07-22T05:14:31;92939.63;;;20.29;63.11
10127;BME280;13080;42.608;23.362;2022-07-22T05:16:58;92941.16;;;20.55;61.36
10127;BME280;13080;42.608;23.362;2022-07-22T05:19:24;92945.44;;;20.60;63.65
10127;BME280;13080;42.608;23.362;2022-07-22T05:21:53;92939.25;;;20.63;63.65
10127;BME280;13080;42.608;23.362;2022-07-22T05:24:19;92942.72;;;20.70;63.60
10127;BME280;13080;42.608;23.362;2022-07-22T05:26:46;92939.59;;;20.75;63.84
10127;BME280;13080;42.608;23.362;2022-07-22T05:29:13;92942.66;;;20.95;62.38
10127;BME280;13080;42.608;23.362;2022-07-22T05:31:40;92947.31;;;20.99;60.49
10127;BME280;13080;42.608;23.362;2022-07-22T05:34:06;92955.81;;;21.04;60.23
10127;BME280;13080;42.608;23.362;2022-07-22T05:36:34;92951.91;;;21.09;58.64
10127;BME280;13080;42.608;23.362;2022-07-22T05:39:02;92961.97;;;21.19;58.47
10127;BME280;13080;42.608;23.362;2022-07-22T05:41:29;92958.47;;;21.18;59.66
10127;BME280;13080;42.608;23.362;2022-07-22T05:43:56;92965.75;;;21.36;58.87
10127;BME280;13080;42.608;23.362;2022-07-22T05:46:22;92952.13;;;21.54;60.41
10127;BME280;13080;42.608;23.362;2022-07-22T05:48:49;92955.66;;;21.51;58.47
10127;BME280;13080;42.608;23.362;2022-07-22T05:51:16;92947.13;;;21.45;59.83
10127;BME280;13080;42.608;23.362;2022-07-22T05:53:43;92956.75;;;21.64;58.69
10127;BME280;13080;42.608;23.362;2022-07-22T05:56:12;92956.38;;;21.62;58.77
10127;BME280;13080;42.608;23.362;2022-07-22T05:58:40;92954.03;;;21.61;57.92
10127;BME280;13080;42.608;23.362;2022-07-22T06:01:07;92953.50;;;21.84;57.61
10127;BME280;13080;42.608;23.362;2022-07-22T06:03:34;92956.19;;;21.91;58.05
10127;BME280;13080;42.608;23.362;2022-07-22T06:06:01;92947.50;;;22.10;58.62
10127;BME280;13080;42.608;23.362;2022-07-22T06:08:30;92957.53;;;22.24;55.12
10127;BME280;13080;42.608;23.362;2022-07-22T06:10:57;92960.66;;;22.23;55.01
10127;BME280;13080;42.608;23.362;2022-07-22T06:13:26;92960.97;;;22.32;56.57
10127;BME280;13080;42.608;23.362;2022-07-22T06:15:53;92970.50;;;22.54;57.40
10127;BME280;13080;42.608;23.362;2022-07-22T06:18:20;92962.53;;;22.74;56.21
10127;BME280;13080;42.608;23.362;2022-07-22T06:20:47;92967.75;;;22.96;55.25
10127;BME280;13080;42.608;23.362;2022-07-22T06:23:14;92964.81;;;23.21;55.71
10127;BME280;13080;42.608;23.362;2022-07-22T06:25:41;92969.19;;;23.11;54.52
10127;BME280;13080;42.608;23.362;2022-07-22T06:28:08;92971.44;;;23.20;53.63
10127;BME280;13080;42.608;23.362;2022-07-22T06:30:37;92966.34;;;23.22;53.24
10127;BME280;13080;42.608;23.362;2022-07-22T06:33:04;92966.50;;;23.42;53.01
10127;BME280;13080;42.608;23.362;2022-07-22T06:35:31;92958.66;;;23.48;52.50
10127;BME280;13080;42.608;23.362;2022-07-22T06:37:58;92964.59;;;23.39;52.19
10127;BME280;13080;42.608;23.362;2022-07-22T06:40:25;92977.25;;;23.22;52.54
10127;BME280;13080;42.608;23.362;2022-07-22T06:42:52;92971.34;;;23.27;51.47
10127;BME280;13080;42.608;23.362;2022-07-22T06:45:19;92972.00;;;23.38;52.18
10127;BME280;13080;42.608;23.362;2022-07-22T06:47:47;92975.22;;;23.60;52.79
10127;BME280;13080;42.608;23.362;2022-07-22T06:50:14;92971.06;;;23.83;51.71
10127;BME280;13080;42.608;23.362;2022-07-22T06:52:41;92972.16;;;23.89;52.86
10127;BME280;13080;42.608;23.362;2022-07-22T06:55:10;92973.88;;;24.06;52.64
10127;BME280;13080;42.608;23.362;2022-07-22T06:57:38;92973.38;;;24.12;50.79
10127;BME280;13080;42.608;23.362;2022-07-22T07:00:06;92973.47;;;24.32;51.39
10127;BME280;13080;42.608;23.362;2022-07-22T07:02:34;92966.63;;;24.47;50.95
10127;BME280;13080;42.608;23.362;2022-07-22T07:05:02;92974.66;;;24.81;52.38
10127;BME280;13080;42.608;23.362;2022-07-22T07:07:30;92972.00;;;24.78;50.09
10127;BME280;13080;42.608;23.362;2022-07-22T07:09:56;92971.19;;;24.77;50.18
10127;BME280;13080;42.608;23.362;2022-07-22T07:12:23;92978.72;;;24.93;50.63
10127;BME280;13080;42.608;23.362;2022-07-22T07:14:50;92978.44;;;24.87;49.05
10127;BME280;13080;42.608;23.362;2022-07-22T07:17:17;92977.13;;;24.96;49.69
10127;BME280;13080;42.608;23.362;2022-07-22T07:19:44;92984.34;;;25.06;46.43
10127;BME280;13080;42.608;23.362;2022-07-22T07:22:12;92982.63;;;25.16;48.31
10127;BME280;13080;42.608;23.362;2022-07-22T07:24:39;92985.81;;;25.34;47.27
10127;BME280;13080;42.608;23.362;2022-07-22T07:27:05;92986.78;;;25.24;46.61
10127;BME280;13080;42.608;23.362;2022-07-22T07:29:32;92989.53;;;25.44;48.21
10127;BME280;13080;42.608;23.362;2022-07-22T07:31:59;92987.50;;;25.48;45.88
10127;BME280;13080;42.608;23.362;2022-07-22T07:34:26;92982.16;;;25.81;47.07
10127;BME280;13080;42.608;23.362;2022-07-22T07:36:53;92985.13;;;25.90;46.15
10127;BME280;13080;42.608;23.362;2022-07-22T07:39:21;92985.66;;;26.01;46.27
10127;BME280;13080;42.608;23.362;2022-07-22T07:41:48;92990.53;;;26.10;44.08
10127;BME280;13080;42.608;23.362;2022-07-22T07:44:16;92988.47;;;26.14;44.73
10127;BME280;13080;42.608;23.362;2022-07-22T07:46:43;92991.25;;;26.30;43.34
10127;BME280;13080;42.608;23.362;2022-07-22T07:49:09;92994.06;;;26.43;43.78
10127;BME280;13080;42.608;23.362;2022-07-22T07:51:36;92992.88;;;26.44;41.91
10127;BME280;13080;42.608;23.362;2022-07-22T07:54:03;92994.81;;;26.64;43.41
10127;BME280;13080;42.608;23.362;2022-07-22T07:56:31;92984.78;;;26.73;41.86
10127;BME280;13080;42.608;23.362;2022-07-22T07:58:58;92988.88;;;26.49;41.65
10127;BME280;13080;42.608;23.362;2022-07-22T08:01:25;92992.47;;;26.46;41.07
10127;BME280;13080;42.608;23.362;2022-07-22T08:03:52;92991.44;;;26.56;41.02
10127;BME280;13080;42.608;23.362;2022-07-22T08:06:19;92990.22;;;26.41;38.98
10127;BME280;13080;42.608;23.362;2022-07-22T08:08:45;92993.31;;;26.43;39.74
10127;BME280;13080;42.608;23.362;2022-07-22T08:11:13;92989.31;;;26.80;42.29
10127;BME280;13080;42.608;23.362;2022-07-22T08:13:42;92995.59;;;27.26;43.26
10127;BME280;13080;42.608;23.362;2022-07-22T08:16:09;92991.31;;;27.25;40.96
10127;BME280;13080;42.608;23.362;2022-07-22T08:18:36;92994.06;;;27.25;38.43
10127;BME280;13080;42.608;23.362;2022-07-22T08:21:03;93000.03;;;27.36;38.12
10127;BME280;13080;42.608;23.362;2022-07-22T08:23:30;93004.00;;;27.48;38.00
10127;BME280;13080;42.608;23.362;2022-07-22T08:25:56;92997.19;;;27.40;36.17
10127;BME280;13080;42.608;23.362;2022-07-22T08:28:24;93001.06;;;27.55;37.44
10127;BME280;13080;42.608;23.362;2022-07-22T08:30:53;93000.75;;;27.53;35.51
10127;BME280;13080;42.608;23.362;2022-07-22T08:33:20;93002.94;;;27.58;37.56
10127;BME280;13080;42.608;23.362;2022-07-22T08:35:46;93003.72;;;27.88;36.67
10127;BME280;13080;42.608;23.362;2022-07-22T08:38:13;93005.94;;;28.06;36.50
10127;BME280;13080;42.608;23.362;2022-07-22T08:40:40;93000.00;;;28.08;36.19
10127;BME280;13080;42.608;23.362;2022-07-22T08:43:07;93004.06;;;28.16;39.16
10127;BME280;13080;42.608;23.362;2022-07-22T08:45:34;93007.38;;;28.24;38.00
10127;BME280;13080;42.608;23.362;2022-07-22T08:48:02;93011.13;;;28.30;36.64
10127;BME280;13080;42.608;23.362;2022-07-22T08:50:31;93004.56;;;28.66;37.23
10127;BME280;13080;42.608;23.362;2022-07-22T08:52:57;93005.00;;;28.99;37.78
10127;BME280;13080;42.608;23.362;2022-07-22T08:55:24;93014.16;;;28.96;35.47
10127;BME280;13080;42.608;23.362;2022-07-22T08:57:51;93016.28;;;28.66;34.86
10127;BME280;13080;42.608;23.362;2022-07-22T09:00:20;93012.22;;;28.32;37.04
10127;BME280;13080;42.608;23.362;2022-07-22T09:02:48;93016.50;;;28.33;34.61
10127;BME280;13080;42.608;23.362;2022-07-22T09:05:17;93024.31;;;28.60;36.42
10127;BME280;13080;42.608;23.362;2022-07-22T09:07:45;93023.63;;;28.31;33.28
10127;BME280;13080;42.608;23.362;2022-07-22T09:10:15;93019.59;;;28.48;33.69
10127;BME280;13080;42.608;23.362;2022-07-22T09:12:53;93017.72;;;28.84;34.37
10127;BME280;13080;42.608;23.362;2022-07-22T09:15:28;93017.69;;;29.09;35.37
10127;BME280;13080;42.608;23.362;2022-07-22T09:17:56;93014.84;;;29.35;35.30
10127;BME280;13080;42.608;23.362;2022-07-22T09:20:25;93021.06;;;29.13;33.46
10127;BME280;13080;42.608;23.362;2022-07-22T09:22:52;93016.84;;;29.21;35.82
10127;BME280;13080;42.608;23.362;2022-07-22T09:25:22;93026.63;;;29.35;36.25
10127;BME280;13080;42.608;23.362;2022-07-22T09:27:52;93021.13;;;29.35;34.19
10127;BME280;13080;42.608;23.362;2022-07-22T09:30:21;93024.97;;;29.38;34.04
10127;BME280;13080;42.608;23.362;2022-07-22T09:32:48;93012.38;;;29.50;33.39
10127;BME280;13080;42.608;23.362;2022-07-22T09:35:16;93009.38;;;29.57;32.94
10127;BME280;13080;42.608;23.362;2022-07-22T09:37:58;93015.56;;;29.26;32.39
10127;BME280;13080;42.608;23.362;2022-07-22T09:40:26;93012.66;;;29.30;33.29
10127;BME280;13080;42.608;23.362;2022-07-22T09:42:55;93016.97;;;29.31;32.56
10127;BME280;13080;42.608;23.362;2022-07-22T09:45:24;93009.97;;;29.04;33.10
10127;BME280;13080;42.608;23.362;2022-07-22T09:47:51;93014.50;;;28.98;32.43
10127;BME280;13080;42.608;23.362;2022-07-22T09:50:22;93009.59;;;29.28;33.80
10127;BME280;13080;42.608;23.362;2022-07-22T09:52:51;93007.06;;;29.33;32.72
10127;BME280;13080;42.608;23.362;2022-07-22T09:55:21;93007.59;;;29.28;32.15
10127;BME280;13080;42.608;23.362;2022-07-22T09:57:49;93000.31;;;29.34;32.85
10127;BME280;13080;42.608;23.362;2022-07-22T10:00:19;93010.84;;;29.14;32.66
10127;BME280;13080;42.608;23.362;2022-07-22T10:02:48;93005.56;;;29.07;32.46
10127;BME280;13080;42.608;23.362;2022-07-22T10:05:17;93009.72;;;29.24;32.25
10127;BME280;13080;42.608;23.362;2022-07-22T10:07:45;93004.63;;;29.57;33.25
10127;BME280;13080;42.608;23.362;2022-07-22T10:10:13;92998.28;;;29.82;34.19
10127;BME280;13080;42.608;23.362;2022-07-22T10:12:42;92998.50;;;29.97;32.40
10127;BME280;13080;42.608;23.362;2022-07-22T10:15:11;92989.44;;;30.19;34.38
10127;BME280;13080;42.608;23.362;2022-07-22T10:17:39;92989.72;;;30.12;35.06
10127;BME280;13080;42.608;23.362;2022-07-22T10:20:09;92994.09;;;30.31;33.27
10127;BME280;13080;42.608;23.362;2022-07-22T10:22:48;92992.75;;;30.36;32.73
10127;BME280;13080;42.608;23.362;2022-07-22T10:25:16;92994.41;;;30.33;33.38
10127;BME280;13080;42.608;23.362;2022-07-22T10:27:47;92986.25;;;29.89;31.52
10127;BME280;13080;42.608;23.362;2022-07-22T10:30:16;92990.16;;;30.10;32.88
10127;BME280;13080;42.608;23.362;2022-07-22T10:32:43;92991.56;;;30.15;33.83
10127;BME280;13080;42.608;23.362;2022-07-22T10:35:23;92985.16;;;30.18;32.60
10127;BME280;13080;42.608;23.362;2022-07-22T10:37:56;92981.31;;;30.46;32.98
10127;BME280;13080;42.608;23.362;2022-07-22T10:40:25;92993.69;;;30.42;32.94
10127;BME280;13080;42.608;23.362;2022-07-22T10:43:12;92986.84;;;30.56;34.32
10127;BME280;13080;42.608;23.362;2022-07-22T10:45:41;92985.13;;;30.40;32.65
10127;BME280;13080;42.608;23.362;2022-07-22T10:48:12;92993.22;;;30.34;33.13
10127;BME280;13080;42.608;23.362;2022-07-22T10:50:51;92977.75;;;30.28;33.48
10127;BME280;13080;42.608;23.362;2022-07-22T10:53:23;92984.84;;;30.16;32.70
10127;BME280;13080;42.608;23.362;2022-07-22T10:56:24;92982.50;;;30.27;36.04
10127;BME280;13080;42.608;23.362;2022-07-22T10:59:09;92977.94;;;30.42;32.31
10127;BME280;13080;42.608;23.362;2022-07-22T11:01:38;92981.09;;;30.72;35.51
10127;BME280;13080;42.608;23.362;2022-07-22T11:04:10;92969.53;;;30.96;34.04
10127;BME280;13080;42.608;23.362;2022-07-22T11:06:38;92975.34;;;30.98;35.15
10127;BME280;13080;42.608;23.362;2022-07-22T11:09:06;92969.41;;;30.99;33.21
10127;BME280;13080;42.608;23.362;2022-07-22T11:11:39;92971.41;;;31.08;35.00
10127;BME280;13080;42.608;23.362;2022-07-22T11:14:21;92977.84;;;30.55;31.75
10127;BME280;13080;42.608;23.362;2022-07-22T11:16:50;92973.19;;;30.34;30.52
10127;BME280;13080;42.608;23.362;2022-07-22T11:19:22;92969.38;;;30.40;31.56
10127;BME280;13080;42.608;23.362;2022-07-22T11:21:51;92972.59;;;30.17;31.93
10127;BME280;13080;42.608;23.362;2022-07-22T11:24:20;92985.94;;;30.18;32.68
10127;BME280;13080;42.608;23.362;2022-07-22T11:26:49;92972.91;;;30.41;31.50
10127;BME280;13080;42.608;23.362;2022-07-22T11:29:24;92969.75;;;30.61;33.11
10127;BME280;13080;42.608;23.362;2022-07-22T11:31:51;92967.00;;;30.61;30.86
10127;BME280;13080;42.608;23.362;2022-07-22T11:34:18;92969.13;;;30.25;31.44
10127;BME280;13080;42.608;23.362;2022-07-22T11:36:46;92967.13;;;30.26;30.53
10127;BME280;13080;42.608;23.362;2022-07-22T11:39:18;92969.13;;;30.25;33.29
10127;BME280;13080;42.608;23.362;2022-07-22T11:41:45;92958.41;;;30.50;31.84
10127;BME280;13080;42.608;23.362;2022-07-22T11:44:12;92964.25;;;30.61;31.77
10127;BME280;13080;42.608;23.362;2022-07-22T11:46:41;92965.44;;;30.60;32.53
10127;BME280;13080;42.608;23.362;2022-07-22T11:49:09;92967.16;;;30.66;32.54
10127;BME280;13080;42.608;23.362;2022-07-22T11:51:39;92967.16;;;30.66;31.92
10127;BME280;13080;42.608;23.362;2022-07-22T11:54:07;92964.28;;;30.30;32.71
10127;BME280;13080;42.608;23.362;2022-07-22T11:56:34;92970.63;;;30.49;35.28
10127;BME280;13080;42.608;23.362;2022-07-22T11:59:02;92967.00;;;30.61;31.40
10127;BME280;13080;42.608;23.362;2022-07-22T12:01:32;92965.16;;;30.67;31.89
10127;BME280;13080;42.608;23.362;2022-07-22T12:04:02;92971.13;;;30.65;30.67
10127;BME280;13080;42.608;23.362;2022-07-22T12:06:30;92954.53;;;30.47;30.72
10127;BME280;13080;42.608;23.362;2022-07-22T12:09:04;92959.97;;;30.69;32.36
10127;BME280;13080;42.608;23.362;2022-07-22T12:11:31;92964.06;;;30.64;31.60
10127;BME280;13080;42.608;23.362;2022-07-22T12:14:05;92958.41;;;30.59;32.24
10127;BME280;13080;42.608;23.362;2022-07-22T12:16:34;92951.75;;;30.38;31.59
10127;BME280;13080;42.608;23.362;2022-07-22T12:19:03;92955.13;;;30.33;30.77
10127;BME280;13080;42.608;23.362;2022-07-22T12:21:32;92944.44;;;30.44;32.71
10127;BME280;13080;42.608;23.362;2022-07-22T12:24:02;92947.09;;;30.57;32.24
10127;BME280;13080;42.608;23.362;2022-07-22T12:26:40;92945.22;;;30.54;30.71
10127;BME280;13080;42.608;23.362;2022-07-22T12:29:19;92948.63;;;30.67;32.41
10127;BME280;13080;42.608;23.362;2022-07-22T12:31:47;92950.00;;;30.62;30.27
10127;BME280;13080;42.608;23.362;2022-07-22T12:34:16;62715.63;;;-145.47;100.00
10127;BME280;13080;42.608;23.362;2022-07-22T12:36:45;62715.63;;;-145.47;100.00
10127;BME280;13080;42.608;23.362;2022-07-22T12:39:14;62715.63;;;-145.47;100.00
10127;BME280;13080;42.608;23.362;2022-07-22T12:41:48;62715.63;;;-145.47;100.00
10127;BME280;13080;42.608;23.362;2022-07-22T12:44:17;62715.63;;;-145.47;100.00
10127;BME280;13080;42.608;23.362;2022-07-22T12:46:45;62715.63;;;-145.47;100.00
10127;BME280;13080;42.608;23.362;2022-07-22T12:49:12;62715.63;;;-145.47;100.00
10127;BME280;13080;42.608;23.362;2022-07-22T12:51:40;62715.63;;;-145.47;100.00
10127;BME280;13080;42.608;23.362;2022-07-22T12:54:07;62715.63;;;-145.47;100.00